Time;durP1;ratioP1;P1;durP2;ratioP2;P2;SDS_P1;SDS_P2;PMS_P1;PMS_P2;Temp;Humidity;BMP_temperature;BMP_pressure;BME280_temperature;BME280_humidity;BME280_pressure;Samples;Min_cycle;Max_cycle;Signal;HPM_P1;HPM_P2
2023/04/20 00:01:32;;;;;;;7.37;6.10;;;11.90;98.10;;;11.90;60.98;94605.19;5076531;28;20465;-62
2023/04/20 00:04:01;;;;;;;11.23;6.33;;;11.90;98.10;;;11.91;60.79;94608.63;5075106;28;20809;-61
2023/04/20 00:06:31;;;;;;;7.90;6.00;;;11.80;98.00;;;11.87;60.53;94602.00;5079210;28;20962;-63
2023/04/20 00:08:58;;;;;;;7.57;6.87;;;11.90;98.10;;;11.87;60.48;94602.00;5076271;28;20462;-63
2023/04/20 00:11:25;;;;;;;15.50;6.00;;;11.80;97.90;;;11.84;60.10;94597.91;5079518;28;20483;-58
2023/04/20 00:13:53;;;;;;;9.90;5.77;;;11.80;97.70;;;11.83;60.52;94607.63;5074418;28;20447;-61
2023/04/20 00:16:20;;;;;;;5.83;5.30;;;11.80;97.80;;;11.82;60.53;94602.50;5078696;28;20446;-59
2023/04/20 00:18:48;;;;;;;8.30;5.70;;;11.80;97.80;;;11.82;60.33;94599.88;5076748;28;20457;-59
2023/04/20 00:21:16;;;;;;;5.73;5.10;;;11.70;97.80;;;11.82;60.17;94594.59;5073791;28;20459;-59
2023/04/20 00:23:44;;;;;;;9.60;5.73;;;11.80;97.80;;;11.80;59.96;94600.03;5071694;28;21082;-62
2023/04/20 00:26:11;;;;;;;8.57;5.63;;;11.70;97.70;;;11.80;60.48;94593.91;5074164;28;20463;-61
2023/04/20 00:28:38;;;;;;;6.87;6.17;;;11.80;98.00;;;11.78;60.29;94593.25;5073523;28;20630;-63
2023/04/20 00:31:06;;;;;;;11.33;6.27;;;11.70;98.00;;;11.76;60.50;94592.56;5068801;28;20830;-63
2023/04/20 00:33:34;;;;;;;8.47;6.30;;;11.70;98.00;;;11.75;60.94;94604.91;5076597;28;20482;-63
2023/04/20 00:36:01;;;;;;;5.73;5.20;;;11.70;98.20;;;11.74;60.81;94600.63;5074488;28;20470;-59
2023/04/20 00:38:30;;;;;;;6.73;6.03;;;11.70;98.30;;;11.74;60.98;94598.00;5071792;28;20548;-59
2023/04/20 00:40:57;;;;;;;7.20;5.90;;;11.70;98.40;;;11.73;61.08;94598.16;5074036;28;20955;-59
2023/04/20 00:43:25;;;;;;;6.63;5.90;;;11.70;98.50;;;11.73;61.16;94592.88;5076244;28;20496;-61
2023/04/20 00:45:52;;;;;;;5.57;5.10;;;11.70;98.40;;;11.71;61.09;94595.66;5073566;28;21166;-60
2023/04/20 00:48:19;;;;;;;6.80;5.80;;;11.70;98.40;;;11.68;61.18;94598.59;5075331;28;21021;-59
2023/04/20 00:50:47;;;;;;;6.70;6.10;;;11.60;98.40;;;11.64;61.29;94592.81;5074452;28;20457;-62
2023/04/20 00:53:15;;;;;;;9.73;6.13;;;11.60;98.50;;;11.63;61.16;94596.44;5075743;28;20479;-61
2023/04/20 00:55:44;;;;;;;7.77;6.90;;;11.60;98.60;;;11.63;61.66;94587.69;5072933;28;20488;-60
2023/04/20 00:58:11;;;;;;;9.97;6.47;;;11.60;98.60;;;11.63;61.41;94585.06;5068729;28;20586;-57
2023/04/20 01:00:39;;;;;;;9.73;6.73;;;11.60;98.60;;;11.63;61.38;94585.91;5075775;28;20461;-58
2023/04/20 01:03:07;;;;;;;11.80;6.80;;;11.60;98.60;;;11.62;61.21;94586.88;5078452;28;20478;-58
2023/04/20 01:05:34;;;;;;;9.30;6.47;;;11.60;98.50;;;11.61;61.19;94587.84;5074099;28;20553;-61
2023/04/20 01:08:02;;;;;;;7.93;6.63;;;11.60;98.50;;;11.59;61.13;94583.72;5079058;28;20493;-61
2023/04/20 01:10:30;;;;;;;8.60;6.63;;;11.60;98.40;;;11.57;61.16;94585.66;5075387;28;20454;-59
2023/04/20 01:12:59;;;;;;;8.97;7.40;;;11.60;98.40;;;11.56;61.34;94584.84;5077690;28;20478;-60
2023/04/20 01:15:26;;;;;;;12.53;6.67;;;11.60;98.50;;;11.54;61.09;94583.34;5078094;28;20458;-62
2023/04/20 01:17:54;;;;;;;7.17;6.47;;;11.50;98.40;;;11.51;61.37;94581.00;5081627;28;20565;-63
2023/04/20 01:20:22;;;;;;;6.53;5.90;;;11.50;98.50;;;11.48;61.50;94582.97;5067835;28;20470;-63
2023/04/20 01:22:52;;;;;;;8.43;5.80;;;11.50;98.50;;;11.47;61.26;94583.13;5077099;28;20486;-63
2023/04/20 01:25:20;;;;;;;8.03;5.80;;;11.40;98.50;;;11.45;61.67;94582.47;5076954;28;20446;-59
2023/04/20 01:27:48;;;;;;;15.13;6.27;;;11.40;98.60;;;11.43;61.50;94579.97;5079469;28;20904;-60
2023/04/20 01:30:16;;;;;;;8.13;6.80;;;11.40;98.70;;;11.43;61.48;94576.50;5074614;28;21064;-59
2023/04/20 01:32:43;;;;;;;9.60;7.23;;;11.40;98.70;;;11.43;61.59;94572.06;5076300;28;20502;-60
2023/04/20 01:35:10;;;;;;;6.50;5.90;;;11.40;98.70;;;11.44;61.50;94576.34;5075863;28;20450;-57
2023/04/20 01:37:38;;;;;;;7.33;6.60;;;11.40;98.70;;;11.43;61.57;94574.72;5076709;28;20561;-60
2023/04/20 01:40:09;;;;;;;9.83;7.00;;;11.40;98.80;;;11.44;61.50;94567.63;5081097;28;20985;-61
2023/04/20 01:42:37;;;;;;;7.43;6.70;;;11.40;98.80;;;11.43;61.78;94558.91;5075074;28;20555;-61
2023/04/20 01:45:06;;;;;;;7.57;6.67;;;11.40;98.80;;;11.42;61.59;94559.88;5081103;28;20450;-58
2023/04/20 01:47:34;;;;;;;12.50;7.00;;;11.40;98.80;;;11.42;61.57;94562.50;5074467;28;20505;-59
2023/04/20 01:50:02;;;;;;;7.13;6.20;;;11.40;98.80;;;11.41;61.57;94560.84;5077397;28;20461;-58
2023/04/20 01:52:29;;;;;;;7.40;6.50;;;11.40;98.80;;;11.41;61.75;94554.75;5077201;28;20489;-58
2023/04/20 01:54:57;;;;;;;6.77;6.17;;;11.40;98.80;;;11.41;61.95;94566.13;5074690;28;20447;-61
2023/04/20 01:57:25;;;;;;;11.00;7.57;;;11.40;98.90;;;11.41;61.99;94571.38;5069197;28;20478;-61
2023/04/20 01:59:53;;;;;;;8.07;7.00;;;11.40;99.00;;;11.39;61.86;94554.91;5076590;28;20459;-57
2023/04/20 02:02:20;;;;;;;8.37;7.00;;;11.40;99.10;;;11.38;61.93;94563.78;5077431;28;20489;-61
2023/04/20 02:04:48;;;;;;;7.07;6.50;;;11.40;99.00;;;11.37;61.73;94558.66;5077373;28;20442;-58
2023/04/20 02:07:15;;;;;;;9.53;6.33;;;11.30;99.10;;;11.36;61.91;94557.03;5076555;28;20577;-61
2023/04/20 02:09:43;;;;;;;7.03;5.80;;;11.30;99.10;;;11.34;62.10;94554.56;5080537;28;21514;-60
2023/04/20 02:12:10;;;;;;;7.73;6.83;;;11.30;99.20;;;11.33;62.22;94552.91;5071559;28;20491;-58
2023/04/20 02:14:39;;;;;;;9.37;7.03;;;11.30;99.20;;;11.31;62.40;94562.75;5075956;28;20466;-62
2023/04/20 02:17:07;;;;;;;7.20;6.50;;;11.30;99.30;;;11.29;62.54;94559.44;5074547;28;21058;-61
2023/04/20 02:19:35;;;;;;;9.63;7.30;;;11.30;99.30;;;11.28;62.45;94560.44;5074634;28;20504;-58
2023/04/20 02:22:02;;;;;;;13.23;6.47;;;11.30;99.30;;;11.27;62.36;94564.03;5077154;28;20505;-61
2023/04/20 02:24:29;;;;;;;7.83;7.03;;;11.20;99.40;;;11.27;62.49;94556.13;5077550;28;20445;-61
2023/04/20 02:26:57;;;;;;;9.10;7.40;;;11.30;99.50;;;11.27;62.38;94561.41;5078148;28;20478;-62
2023/04/20 02:29:25;;;;;;;6.80;6.00;;;11.30;99.40;;;11.27;62.06;94564.03;5076856;28;20616;-63
2023/04/20 02:31:54;;;;;;;14.27;7.10;;;11.30;99.30;;;11.23;62.30;94563.53;5077738;28;20500;-60
2023/04/20 02:34:21;;;;;;;12.03;7.03;;;11.20;99.30;;;11.22;62.27;94563.66;5076957;28;20451;-62
2023/04/20 02:36:49;;;;;;;9.03;6.90;;;11.20;99.30;;;11.21;62.26;94562.00;5077697;28;20467;-60
2023/04/20 02:39:18;;;;;;;12.13;7.30;;;11.20;99.30;;;11.21;62.15;94556.75;5077225;28;20481;-59
2023/04/20 02:41:49;;;;;;;7.20;6.50;;;11.20;99.30;;;11.23;62.46;94560.03;5088191;28;20515;-60
2023/04/20 02:44:19;;;;;;;8.03;7.23;;;11.20;99.40;;;11.24;62.74;94561.69;5090076;28;20787;-59
2023/04/20 02:46:47;;;;;;;11.33;7.23;;;11.20;99.30;;;11.25;62.05;94553.66;5094652;28;20454;-59
2023/04/20 02:49:25;;;;;;;8.83;6.67;;;11.20;99.30;;;11.27;62.19;94558.78;5092657;28;20512;-62
2023/04/20 02:51:56;;;;;;;6.93;6.33;;;11.20;99.30;;;11.24;61.97;94551.16;5095992;28;20477;-61
2023/04/20 02:54:27;;;;;;;14.47;7.60;;;11.20;99.30;;;11.26;62.14;94557.94;5090334;28;20489;-62
2023/04/20 02:56:57;;;;;;;12.13;6.50;;;11.20;99.30;;;11.26;62.17;94560.59;5094807;28;20519;-62
2023/04/20 02:59:28;;;;;;;7.40;6.63;;;11.20;99.20;;;11.27;62.18;94558.78;5095709;28;20560;-61
2023/04/20 03:01:55;;;;;;;7.93;6.33;;;11.20;99.20;;;11.27;61.89;94566.66;5081572;28;20469;-62
2023/04/20 03:04:24;;;;;;;9.43;6.67;;;11.20;99.10;;;11.28;61.96;94561.25;5077849;28;20461;-59
2023/04/20 03:06:52;;;;;;;21.63;13.33;;;11.20;99.10;;;11.29;61.93;94562.06;5077849;28;20505;-58
2023/04/20 03:09:20;;;;;;;13.17;9.60;;;11.30;99.10;;;11.29;61.81;94557.66;5077860;28;20572;-63
2023/04/20 03:11:47;;;;;;;10.60;9.50;;;11.30;99.10;;;11.32;62.12;94561.75;5072973;28;21397;-61
2023/04/20 03:14:15;;;;;;;12.10;7.93;;;11.30;99.10;;;11.33;61.97;94558.16;5075419;28;20450;-60
2023/04/20 03:16:42;;;;;;;7.03;6.33;;;11.30;99.10;;;11.35;62.14;94555.38;5073157;28;21001;-59
2023/04/20 03:19:10;;;;;;;7.73;6.53;;;11.30;99.10;;;11.36;61.93;94564.94;5077857;28;20456;-62
2023/04/20 03:21:38;;;;;;;7.40;6.70;;;11.30;99.10;;;11.36;61.93;94565.75;5074836;28;20490;-62
2023/04/20 03:24:06;;;;;;;8.60;7.17;;;11.30;99.10;;;11.37;61.83;94563.94;5075813;28;20470;-59
2023/04/20 03:26:35;;;;;;;6.63;5.93;;;11.30;99.10;;;11.36;61.68;94568.38;5076092;28;20469;-61
2023/04/20 03:29:02;;;;;;;7.60;6.90;;;11.40;99.00;;;11.37;61.80;94561.31;5070128;28;20495;-59
2023/04/20 03:31:29;;;;;;;8.30;6.20;;;11.30;99.00;;;11.38;61.62;94571.69;5075789;28;20454;-59
2023/04/20 03:33:57;;;;;;;6.27;5.77;;;11.30;99.00;;;11.37;61.92;94567.41;5074223;28;20500;-62
2023/04/20 03:36:24;;;;;;;10.53;6.30;;;11.40;99.10;;;11.36;61.94;94572.84;5078313;28;20469;-58
2023/04/20 03:38:53;;;;;;;10.40;7.97;;;11.30;99.10;;;11.38;62.01;94576.94;5077185;28;21173;-63
2023/04/20 03:41:21;;;;;;;14.20;9.70;;;11.30;99.10;;;11.38;62.01;94569.06;5074608;28;20450;-57
2023/04/20 03:43:48;;;;;;;11.33;8.50;;;11.40;99.30;;;11.41;62.39;94566.13;5074910;28;20450;-58
2023/04/20 03:46:16;;;;;;;7.20;5.93;;;11.40;99.30;;;11.42;61.72;94573.06;5071856;28;20455;-59
2023/04/20 03:48:43;;;;;;;7.77;6.93;;;11.40;99.10;;;11.44;61.79;94570.25;5069467;28;20498;-62
2023/04/20 03:51:10;;;;;;;8.80;7.90;;;11.40;99.00;;;11.46;61.86;94568.28;5074460;28;20485;-60
2023/04/20 03:53:38;;;;;;;15.93;11.60;;;11.40;99.10;;;11.46;61.67;94563.88;5075621;28;20474;-59
2023/04/20 03:56:07;;;;;;;19.77;13.37;;;11.40;99.10;;;11.47;61.74;94570.78;5069782;28;20447;-61
2023/04/20 03:58:35;;;;;;;15.63;9.07;;;11.50;99.10;;;11.50;61.37;94568.84;5073890;28;20478;-61
2023/04/20 04:01:05;;;;;;;13.90;7.00;;;11.50;99.00;;;11.48;61.51;94569.81;5075993;28;20447;-60
2023/04/20 04:03:33;;;;;;;8.90;6.50;;;11.50;98.90;;;11.48;61.64;94572.44;5073092;28;20550;-59
2023/04/20 04:06:00;;;;;;;9.23;6.27;;;11.50;99.00;;;11.47;61.59;94573.41;5079200;28;20457;-62
2023/04/20 04:08:28;;;;;;;6.97;5.90;;;11.40;99.00;;;11.46;61.53;94563.88;5074472;28;20486;-59
2023/04/20 04:10:55;;;;;;;13.33;6.63;;;11.40;98.90;;;11.43;61.58;94569.44;5072579;28;20540;-60
2023/04/20 04:13:24;;;;;;;9.40;6.30;;;11.40;98.90;;;11.40;61.84;94575.00;5072458;28;20482;-60
2023/04/20 04:15:51;;;;;;;8.33;6.13;;;11.40;99.00;;;11.40;62.06;94572.38;5074593;28;20461;-61
2023/04/20 04:18:20;;;;;;;14.63;7.43;;;11.40;99.20;;;11.41;62.29;94574.00;5074937;28;20566;-61
2023/04/20 04:20:48;;;;;;;7.47;6.47;;;11.40;99.40;;;11.43;61.96;94579.13;5074446;28;20461;-61
2023/04/20 04:23:15;;;;;;;11.80;6.93;;;11.40;99.30;;;11.42;62.11;94575.69;5070931;28;21379;-60
2023/04/20 04:25:43;;;;;;;13.03;7.23;;;11.40;99.20;;;11.45;62.08;94578.00;5076680;28;20453;-61
2023/04/20 04:28:10;;;;;;;14.80;7.17;;;11.40;99.20;;;11.43;62.22;94569.44;5068280;28;20490;-59
2023/04/20 04:30:39;;;;;;;18.53;7.37;;;11.40;99.30;;;11.49;62.04;94583.78;5075298;28;20461;-62
2023/04/20 04:33:09;;;;;;;46.00;13.33;;;11.40;99.50;;;11.55;62.54;94582.38;5071571;28;20466;-59
2023/04/20 04:35:36;;;;;;;38.13;19.80;;;11.50;99.80;;;11.56;62.39;94590.13;5076688;28;20481;-62
2023/04/20 04:38:04;;;;;;;14.97;8.70;;;11.50;99.50;;;11.58;62.48;94590.78;5069991;28;20950;-62
2023/04/20 04:40:32;;;;;;;14.37;10.57;;;11.60;99.60;;;11.60;62.52;94586.22;5064897;28;20486;-59
2023/04/20 04:42:59;;;;;;;11.50;8.73;;;11.60;99.70;;;11.61;62.49;94585.19;5070427;28;20463;-60
2023/04/20 04:45:28;;;;;;;10.40;8.23;;;11.60;99.60;;;11.63;62.15;94592.94;5075093;28;20463;-62
2023/04/20 04:47:57;;;;;;;16.60;7.90;;;11.60;99.50;;;11.65;62.43;94593.66;5065372;28;20462;-61
2023/04/20 04:50:25;;;;;;;9.13;8.20;;;11.60;99.60;;;11.69;62.31;94602.06;5074392;28;20861;-61
2023/04/20 04:52:53;;;;;;;11.40;8.77;;;11.60;99.60;;;11.71;62.30;94597.47;5072715;28;20466;-59
2023/04/20 04:55:20;;;;;;;12.43;8.40;;;11.70;99.60;;;11.73;62.43;94600.78;5072940;28;20450;-62
2023/04/20 04:57:47;;;;;;;14.90;8.17;;;11.70;99.60;;;11.75;62.06;94599.63;5072788;28;20470;-57
2023/04/20 05:00:17;;;;;;;19.50;8.27;;;11.70;99.40;;;11.77;62.13;94602.09;5074822;28;20459;-68
2023/04/20 05:02:44;;;;;;;9.70;7.43;;;11.70;99.30;;;11.79;61.86;94606.25;5075117;28;20553;-60
2023/04/20 05:05:13;;;;;;;15.67;7.60;;;11.70;99.30;;;11.77;62.14;94605.59;5070149;28;20462;-58
2023/04/20 05:07:41;;;;;;;16.87;9.90;;;11.80;99.30;;;11.81;61.80;94608.75;5072877;28;20466;-63
2023/04/20 05:10:09;;;;;;;8.33;7.53;;;11.70;99.20;;;11.82;61.76;94613.03;5072762;28;20962;-59
2023/04/20 05:12:36;;;;;;;17.00;8.23;;;11.80;99.20;;;11.84;61.70;94608.44;5077835;28;20461;-58
2023/04/20 05:15:05;;;;;;;12.70;9.53;;;11.80;99.30;;;11.86;62.06;94608.28;5077594;28;20455;-62
2023/04/20 05:17:32;;;;;;;11.60;7.00;;;11.80;99.30;;;11.87;62.00;94607.28;5079911;28;21064;-63
2023/04/20 05:20:00;;;;;;;14.30;8.63;;;11.80;99.30;;;11.89;62.06;94602.69;5071136;28;20459;-61
2023/04/20 05:22:29;;;;;;;33.63;18.77;;;11.80;99.20;;;11.91;62.08;94598.09;5074711;28;20478;-62
2023/04/20 05:24:56;;;;;;;74.97;28.80;;;11.90;99.30;;;11.91;61.60;94598.91;5074305;28;20486;-58
2023/04/20 05:27:23;;;;;;;34.30;17.00;;;11.90;99.20;;;11.93;61.77;94615.44;5075713;28;21182;-57
2023/04/20 05:29:51;;;;;;;125.83;44.90;;;11.90;99.20;;;11.94;61.45;94608.34;5072746;28;20837;-58
2023/04/20 05:32:18;;;;;;;215.00;67.33;;;11.90;99.20;;;11.96;61.64;94609.00;5078580;28;20474;-58
2023/04/20 05:34:45;;;;;;;140.63;45.27;;;11.90;99.20;;;11.97;61.58;94608.88;5070772;28;20832;-61
2023/04/20 05:37:13;;;;;;;194.47;61.07;;;11.90;99.20;;;11.99;61.89;94614.81;5076144;28;20906;-57
2023/04/20 05:39:42;;;;;;;293.17;93.23;;;11.90;99.20;;;12.01;61.81;94620.75;5073851;28;21064;-61
2023/04/20 05:42:09;;;;;;;117.67;39.87;;;12.00;99.60;;;12.05;61.83;94616.00;5077936;28;20463;-58
2023/04/20 05:44:36;;;;;;;52.97;24.70;;;12.00;99.30;;;12.07;61.79;94616.69;5077491;28;20477;-62
2023/04/20 05:47:05;;;;;;;19.20;13.07;;;12.00;99.20;;;12.08;61.86;94618.31;5072418;28;20504;-61
2023/04/20 05:49:32;;;;;;;16.40;12.00;;;12.00;99.20;;;12.10;62.13;94619.00;5078649;28;21029;-58
2023/04/20 05:52:00;;;;;;;15.73;11.70;;;12.00;99.40;;;12.12;62.12;94619.69;5076651;28;20954;-61
2023/04/20 05:54:28;;;;;;;17.63;12.50;;;12.10;99.50;;;12.14;62.23;94619.53;5081307;28;20454;-58
2023/04/20 05:56:57;;;;;;;18.47;15.40;;;12.10;99.70;;;12.16;62.31;94621.03;5077368;28;20570;-62
2023/04/20 05:59:25;;;;;;;29.87;17.70;;;12.10;99.70;;;12.16;62.35;94623.66;5081271;28;20488;-57
2023/04/20 06:01:52;;;;;;;16.27;12.30;;;12.10;99.80;;;12.19;62.64;94622.50;5077817;28;20585;-58
2023/04/20 06:04:19;;;;;;;12.80;10.53;;;12.10;99.80;;;12.22;62.55;94616.09;5081321;28;20457;-61
2023/04/20 06:06:47;;;;;;;18.17;10.00;;;12.10;99.80;;;12.23;61.96;94610.69;5076254;28;20474;-57
2023/04/20 06:09:14;;;;;;;13.30;9.63;;;12.20;99.70;;;12.26;63.04;94620.91;5084040;28;20500;-57
2023/04/20 06:11:42;;;;;;;12.80;10.23;;;12.20;99.90;;;12.32;63.34;94619.47;5077526;28;20824;-56
2023/04/20 06:14:12;;;;;;;12.37;10.40;;;12.20;99.90;;;12.35;63.40;94619.16;5079390;28;20476;-59
2023/04/20 06:16:40;;;;;;;12.27;9.43;;;12.30;99.90;;;12.42;63.57;94621.97;5078746;28;21072;-57
2023/04/20 06:19:07;;;;;;;15.30;9.93;;;12.30;99.90;;;12.47;63.85;94617.06;5081627;28;20450;-58
2023/04/20 06:21:35;;;;;;;16.30;9.47;;;12.40;99.90;;;12.51;63.30;94616.59;5080315;28;20478;-59
2023/04/20 06:24:02;;;;;;;13.87;9.83;;;12.40;99.90;;;12.57;63.17;94615.13;5079006;28;20451;-62
2023/04/20 06:26:30;;;;;;;15.93;11.13;;;12.50;99.90;;;12.63;62.69;94624.25;5078364;28;20553;-62
2023/04/20 06:28:57;;;;;;;13.30;10.10;;;12.50;99.90;;;12.67;62.55;94625.56;5078264;28;20489;-62
2023/04/20 06:31:26;;;;;;;12.47;9.90;;;12.60;99.90;;;12.71;62.21;94629.53;5079655;28;20973;-58
2023/04/20 06:33:53;;;;;;;17.00;10.20;;;12.60;99.90;;;12.73;62.34;94627.56;5075145;28;20458;-62
2023/04/20 06:36:21;;;;;;;14.00;10.90;;;12.60;99.60;;;12.73;61.72;94627.56;5079386;28;20450;-62
2023/04/20 06:38:49;;;;;;;12.43;10.27;;;12.70;99.50;;;12.72;61.82;94634.66;5079416;28;20983;-62
2023/04/20 06:41:16;;;;;;;13.83;10.70;;;12.70;99.60;;;12.74;62.28;94637.13;5078979;28;20466;-58
2023/04/20 06:43:44;;;;;;;13.23;11.30;;;12.70;99.90;;;12.75;62.56;94633.53;5078043;28;20461;-62
2023/04/20 06:46:12;;;;;;;13.40;11.20;;;12.70;99.90;;;12.75;62.64;94633.53;5082114;28;20461;-58
2023/04/20 06:48:40;;;;;;;15.17;10.97;;;12.70;99.90;;;12.74;62.40;94639.78;5072635;28;20454;-58
2023/04/20 06:51:08;;;;;;;12.93;9.60;;;12.70;99.90;;;12.70;62.62;94644.56;5080411;28;20454;-62
2023/04/20 06:53:35;;;;;;;16.33;11.90;;;12.60;99.90;;;12.66;62.65;94639.75;5075069;28;20466;-59
2023/04/20 06:56:03;;;;;;;13.57;11.47;;;12.60;99.90;;;12.61;63.03;94640.22;5078762;28;20515;-58
2023/04/20 06:58:30;;;;;;;15.43;11.10;;;12.60;99.90;;;12.62;63.19;94648.97;5075742;28;21083;-58
2023/04/20 07:00:58;;;;;;;15.43;11.20;;;12.60;99.90;;;12.61;63.05;94648.13;5081507;28;20766;-60
2023/04/20 07:03:26;;;;;;;15.33;10.97;;;12.60;99.90;;;12.62;63.13;94646.31;5073766;28;20485;-61
2023/04/20 07:05:54;;;;;;;13.03;11.30;;;12.60;99.90;;;12.64;63.48;94649.63;5078778;28;20854;-61
2023/04/20 07:08:22;;;;;;;14.43;10.97;;;12.60;99.90;;;12.68;63.30;94653.59;5078100;28;20460;-62
2023/04/20 07:10:49;;;;;;;17.40;10.33;;;12.60;99.90;;;12.73;63.26;94659.22;5077947;28;20935;-61
2023/04/20 07:13:17;;;;;;;17.90;11.73;;;12.60;99.90;;;12.75;63.69;94649.34;5075408;28;20479;-58
2023/04/20 07:15:46;;;;;;;15.20;10.27;;;12.70;99.90;;;12.78;63.14;94658.75;5079288;28;20454;-62
2023/04/20 07:18:13;;;;;;;13.30;11.30;;;12.70;99.90;;;12.82;63.22;94655.63;5076741;28;20474;-62
2023/04/20 07:20:41;;;;;;;11.87;10.00;;;12.70;99.90;;;12.88;62.93;94657.63;5074654;28;20453;-58
2023/04/20 07:23:09;;;;;;;13.83;10.53;;;12.80;99.90;;;12.97;62.97;94657.69;5077118;28;20471;-57
2023/04/20 07:25:37;;;;;;;14.30;10.37;;;12.90;99.90;;;13.07;63.31;94653.94;5078481;28;20461;-62
2023/04/20 07:28:04;;;;;;;15.77;10.90;;;12.90;99.90;;;13.18;62.91;94649.31;5076828;28;20462;-58
2023/04/20 07:30:32;;;;;;;11.43;9.23;;;13.10;99.90;;;13.27;62.74;94648.34;5079510;28;20490;-60
2023/04/20 07:32:59;;;;;;;12.20;9.83;;;13.10;99.90;;;13.38;62.33;94655.19;5073565;28;20478;-58
2023/04/20 07:35:27;;;;;;;16.17;10.47;;;13.20;99.90;;;13.46;62.08;94657.81;5076730;28;21323;-61
2023/04/20 07:37:54;;;;;;;14.77;10.40;;;13.30;99.90;;;13.56;61.78;94653.22;5078932;28;20473;-60
2023/04/20 07:40:23;;;;;;;15.70;9.67;;;13.40;99.90;;;13.69;61.96;94643.97;5076482;28;20508;-61
2023/04/20 07:42:51;;;;;;;25.30;9.67;;;13.60;99.90;;;13.85;61.43;94643.16;5078197;28;20466;-57
2023/04/20 07:45:19;;;;;;;9.80;8.80;;;13.70;99.80;;;14.06;61.14;94648.75;5080854;28;20459;-61
2023/04/20 07:47:50;;;;;;;12.87;9.70;;;13.90;99.50;;;14.30;60.73;94649.75;5072474;28;21425;-62
2023/04/20 07:50:17;;;;;;;21.93;11.90;;;14.10;99.40;;;14.51;60.14;94646.53;5073178;28;20844;-62
2023/04/20 07:52:45;;;;;;;15.60;11.70;;;14.30;99.20;;;14.75;60.09;94648.31;5079630;28;20462;-58
2023/04/20 07:55:14;;;;;;;12.30;11.00;;;14.50;98.90;;;15.02;59.56;94652.34;5073997;28;20451;-63
2023/04/20 07:57:43;;;;;;;13.53;10.10;;;14.80;98.60;;;15.39;58.97;94650.81;5078409;28;20468;-58
2023/04/20 08:00:13;;;;;;;20.10;11.00;;;15.20;98.30;;;15.76;57.49;94651.09;5075989;28;20515;-63
2023/04/20 08:02:40;;;;;;;12.00;8.60;;;15.50;97.10;;;15.97;56.37;94642.47;5080322;28;20466;-62
2023/04/20 08:05:09;;;;;;;20.33;11.10;;;15.70;96.10;;;16.06;56.10;94641.41;5074377;28;21055;-58
2023/04/20 08:07:37;;;;;;;12.97;9.37;;;15.90;95.90;;;16.07;55.02;94636.94;5080782;28;20531;-57
2023/04/20 08:10:05;;;;;;;11.73;9.30;;;15.90;95.00;;;16.02;55.69;94649.91;5075845;28;20497;-62
2023/04/20 08:12:33;;;;;;;10.07;8.33;;;15.90;95.00;;;15.93;55.37;94652.63;5079347;28;20476;-61
2023/04/20 08:15:05;;;;;;;11.03;8.43;;;15.80;94.70;;;15.82;55.24;94652.22;5074693;28;20454;-60
2023/04/20 08:17:32;;;;;;;16.47;10.20;;;15.70;94.50;;;15.71;55.30;94650.81;5079010;28;20585;-61
2023/04/20 08:20:00;;;;;;;10.63;7.97;;;15.60;94.50;;;15.62;55.40;94655.31;5077257;28;20447;-61
2023/04/20 08:22:28;;;;;;;16.17;8.53;;;15.60;94.50;;;15.51;55.77;94655.75;5077048;28;20478;-62
2023/04/20 08:24:56;;;;;;;11.77;9.70;;;15.40;94.60;;;15.40;55.93;94662.28;5077514;28;21137;-58
2023/04/20 08:27:24;;;;;;;19.23;11.93;;;15.30;94.80;;;15.30;56.03;94654.53;5077182;28;20482;-59
2023/04/20 08:29:51;;;;;;;16.50;12.00;;;15.20;94.80;;;15.19;56.12;94652.28;5074880;28;20501;-62
2023/04/20 08:32:22;;;;;;;21.30;11.10;;;15.00;94.80;;;15.13;56.28;94655.59;5075930;28;20471;-57
2023/04/20 08:34:49;;;;;;;12.63;10.10;;;15.00;95.10;;;15.08;56.50;94657.97;5071875;28;20443;-58
2023/04/20 08:37:17;;;;;;;16.60;9.90;;;15.00;95.10;;;15.03;56.14;94661.94;5077615;28;20555;-62
2023/04/20 08:39:44;;;;;;;18.73;8.87;;;14.90;94.70;;;14.98;56.26;94653.69;5075768;28;20953;-57
2023/04/20 08:42:12;;;;;;;11.33;9.90;;;14.90;94.80;;;14.94;56.33;94657.69;5076302;28;21149;-62
2023/04/20 08:44:39;;;;;;;10.30;9.30;;;14.80;94.90;;;14.93;56.42;94650.72;5076853;28;20481;-57
2023/04/20 08:47:09;;;;;;;11.90;9.70;;;14.80;95.00;;;14.92;56.06;94650.91;5072611;28;20466;-58
2023/04/20 08:49:39;;;;;;;11.50;9.87;;;14.80;94.70;;;14.85;56.13;94648.94;5077327;28;20576;-62
2023/04/20 08:52:09;;;;;;;13.60;10.30;;;14.80;94.70;;;14.81;56.08;94658.22;5072690;28;20525;-59
2023/04/20 08:54:38;;;;;;;12.10;9.80;;;14.70;94.50;;;14.80;56.02;94656.56;5074872;28;20439;-59
2023/04/20 08:57:06;;;;;;;12.80;9.67;;;14.70;94.60;;;14.79;56.09;94654.91;5076518;28;21013;-62
2023/04/20 08:59:33;;;;;;;15.60;10.63;;;14.70;94.60;;;14.79;55.83;94654.09;5077065;28;20523;-57
2023/04/20 09:02:10;;;;;;;18.97;10.03;;;14.70;94.40;;;14.80;55.94;94661.06;5073902;28;21035;-58
2023/04/20 09:04:39;;;;;;;15.63;10.43;;;14.70;94.50;;;14.80;55.96;94655.75;5072663;28;20449;-58
2023/04/20 09:07:07;;;;;;;14.50;10.23;;;14.70;94.40;;;14.77;55.53;94656.09;5073864;28;20904;-63
2023/04/20 09:09:35;;;;;;;11.70;10.50;;;14.60;94.50;;;14.78;55.88;94658.56;5078347;28;20489;-58
2023/04/20 09:12:03;;;;;;;21.73;10.30;;;14.60;94.40;;;14.80;55.83;94658.41;5076809;28;20493;-58
2023/04/20 09:14:30;;;;;;;15.57;8.57;;;14.70;94.60;;;14.82;55.83;94664.34;5069340;28;20454;-58
2023/04/20 09:17:01;;;;;;;10.13;9.13;;;14.70;94.50;;;14.80;55.72;94658.41;5076375;28;20564;-57
2023/04/20 09:19:29;;;;;;;10.80;9.30;;;14.70;94.30;;;14.83;55.79;94647.47;5070554;28;20458;-62
2023/04/20 09:22:00;;;;;;;12.13;9.13;;;14.70;94.30;;;14.87;55.80;94652.25;5078597;28;20481;-62
2023/04/20 09:24:31;;;;;;;12.00;9.60;;;14.70;94.30;;;14.95;55.71;94643.44;5077500;28;20877;-58
2023/04/20 09:27:00;;;;;;;14.00;10.10;;;14.80;94.40;;;15.03;55.76;94645.25;5079536;28;20470;-62
2023/04/20 09:29:29;;;;;;;11.50;8.87;;;14.90;94.40;;;15.13;55.38;94639.72;5077159;28;20541;-56
2023/04/20 09:31:56;;;;;;;11.23;9.10;;;14.90;94.20;;;15.21;55.17;94639.66;5077775;28;20478;-62
2023/04/20 09:34:24;;;;;;;14.43;10.47;;;15.00;94.10;;;15.32;55.26;94634.00;5076214;28;20447;-62
2023/04/20 09:36:54;;;;;;;12.13;10.00;;;15.10;94.00;;;15.49;55.17;94634.72;5080456;28;20482;-62
2023/04/20 09:39:25;;;;;;;14.87;10.13;;;15.30;94.20;;;15.72;54.95;94631.22;5076125;28;20446;-57
2023/04/20 09:41:53;;;;;;;10.20;9.13;;;15.50;94.00;;;15.92;54.07;94619.16;5081015;28;20474;-62
2023/04/20 09:44:20;;;;;;;16.00;9.93;;;15.70;93.30;;;16.06;53.35;94636.09;5078462;28;20971;-58
2023/04/20 09:46:47;;;;;;;12.90;10.47;;;15.90;92.60;;;16.13;53.29;94623.78;5080329;28;20474;-57
2023/04/20 09:49:15;;;;;;;14.87;9.93;;;15.90;92.50;;;16.19;53.57;94626.72;5078379;28;20489;-57
2023/04/20 09:51:44;;;;;;;11.90;8.97;;;16.00;92.70;;;16.30;53.33;94632.41;5080494;28;20490;-63
2023/04/20 09:54:12;;;;;;;11.93;8.90;;;16.10;92.70;;;16.43;52.88;94629.13;5079119;28;20473;-62
2023/04/20 09:56:41;;;;;;;10.83;8.37;;;16.20;92.20;;;16.61;52.48;94628.78;5075920;28;20474;-62
2023/04/20 09:59:09;;;;;;;11.40;10.23;;;16.40;92.10;;;16.80;51.71;94627.38;5072479;28;20451;-57
2023/04/20 10:01:37;;;;;;;13.40;12.00;;;16.60;91.30;;;17.00;51.93;94611.72;5078034;28;20466;-59
2023/04/20 10:04:09;;;;;;;10.40;8.90;;;16.80;91.40;;;17.29;51.11;94619.81;5081232;28;20816;-61
2023/04/20 10:06:37;;;;;;;10.27;9.20;;;17.00;90.80;;;17.55;48.98;94612.16;5076213;28;20550;-57
2023/04/20 10:09:05;;;;;;;16.80;8.67;;;17.30;88.10;;;17.73;50.24;94611.69;5077802;28;20772;-61
2023/04/20 10:11:34;;;;;;;10.87;9.20;;;17.50;90.00;;;17.90;50.57;94611.47;5077876;28;20559;-57
2023/04/20 10:14:16;;;;;;;10.70;8.87;;;17.70;89.80;;;18.06;49.79;94607.69;5080783;28;20449;-61
2023/04/20 10:16:44;;;;;;;13.63;11.97;;;17.80;88.60;;;18.15;48.09;94598.56;5078004;28;21005;-61